NCAR-RAP Real-Time Weather Data

Output produced by METARs form (14 October 2019  23:12 UTC)
found at http://weather.rap.ucar.edu/surface/
 
KRDU 142251Z 00000KT 10SM FEW250 19/06 A3004 RMK AO2 SLP171 T01940061 $
KRDU 142151Z 26005KT 10SM FEW250 24/07 A3003 RMK AO2 SLP166 T02390067 $
KRDU 142051Z 25005KT 10SM FEW250 26/06 A3003 RMK AO2 SLP164 T02560061 55007 $
KRDU 141951Z 00000KT 10SM CLR 25/06 A3002 RMK AO2 SLP163 T02500061 $
KRDU 141851Z VRB05KT 10SM CLR 24/07 A3004 RMK AO2 SLP167 T02440072 $
KRDU 141751Z 26006KT 10SM CLR 24/09 A3005 RMK AO2 SLP172 T02390089 10244 20156 58015 $
KRDU 141651Z 34007KT 10SM CLR 23/09 A3007 RMK AO2 SLP180 T02280089 $
KRDU 141551Z 01007KT 10SM CLR 22/10 A3008 RMK AO2 SLP182 T02170100 $
KRDU 141451Z VRB05KT 10SM CLR 21/11 A3010 RMK AO2 SLP187 T02060111 51016 $
KRDU 141351Z 27005KT 10SM FEW006 18/13 A3009 RMK AO2 SLP185 T01780133 $
KRDU 141251Z 32004KT 10SM FEW007 17/16 A3007 RMK AO2 SLP180 T01670156 $
KRDU 141151Z 32003KT 10SM FEW010 16/16 A3005 RMK AO2 SLP172 70039 T01560156 10194 20156 51021 $
KRDU 141107Z 32003KT 10SM SCT015 17/16 A3004 RMK AO2 T01670156 $
KRDU 141051Z 33003KT 10SM FEW008 BKN015 17/16 A3003 RMK AO2 SLP168 T01670161 $
KRDU 141024Z 00000KT 10SM FEW008 BKN015 17/16 A3003 RMK AO2 T01720161 $
KRDU 140951Z 31003KT 7SM BKN008 OVC015 18/17 A3002 RMK AO2 SLP162 T01780172 $
KRDU 140851Z 30003KT 7SM SCT006 BKN015 OVC028 18/18 A2999 RMK AO2 SLP151 T01780178 55006 $
KRDU 140754Z 25005KT 7SM SCT004 BKN015 OVC028 19/19 A2998 RMK AO2 T01890189 $
KRDU 140751Z 26003KT 1SM SCT005 BKN015 OVC028 19/19 A2998 RMK AO2 SFC VIS 7 SLP149 T01890189 $
KRDU 140651Z 00000KT 1SM SCT005 BKN015 OVC025 19/19 A2998 RMK AO2 SFC VIS 7 SLP151 T01890189 $
KRDU 140635Z 26003KT 1SM SCT005 BKN015 OVC025 19/19 A2999 RMK AO2 SFC VIS 7 T01890189 $
KRDU 140551Z 24007KT 1SM BKN004 OVC015 19/19 A3000 RMK AO2 SFC VIS 7 SLP157 60001 T01940194 10194 20189 58002 $
KRDU 140523Z 24005KT 1SM BKN004 OVC011 19/19 A2999 RMK AO2 SFC VIS 7 T01940194 $
KRDU 140451Z 24005KT 1SM SCT004 BKN011 OVC018 19/19 A3001 RMK AO2 SFC VIS 7 RAE03 SLP159 P0000 T01940194 402390150 $
KRDU 140418Z 24005KT 1SM SCT004 BKN011 OVC018 19/19 A3001 RMK AO2 SFC VIS 7 RAE03 P0000 T01940194 $
KRDU 140358Z 00000KT 1/2SM -RA BKN004 OVC018 19/19 A3001 RMK AO2 SFC VIS 7 P0000 T01940194 $
KRDU 140351Z 29003KT 8SM -RA SCT005 BKN018 OVC100 19/19 A3001 RMK AO2 RAB33 SLP159 P0001 T01940194 $
KRDU 140251Z 25003KT 8SM SCT005 BKN018 OVC023 19/19 A3001 RMK AO2 DZB04E26 SLP158 T01940189 58004 PNO $
KRDU 140233Z 00000KT 8SM SCT005 BKN018 OVC023 19/19 A3001 RMK AO2 DZB04E26 T01940189 PNO $
KRDU 140151Z 00000KT 5SM BR BKN006 OVC019 19/19 A3002 RMK AO2 SLP163 T01940189
KRDU 140142Z 22003KT 10SM BKN007 OVC019 19/19 A3002 RMK AO2 T01940189
KRDU 140115Z 00000KT 6SM BR SCT009 BKN019 OVC035 19/19 A3001 RMK AO2 T01890189
KRDU 140051Z 18003KT 6SM BR SCT015 BKN022 OVC050 19/19 A3001 RMK AO2 SLP159 T01890189
KRDU 140034Z 00000KT 8SM FEW018 BKN041 OVC070 19/19 A3001 RMK AO2 T01890189
KRDU 140008Z 00000KT 5SM BR SCT017 BKN029 OVC070 19/19 A3002 RMK AO2 T01890189
KRDU 132354Z 25004KT 5SM BR SCT032 BKN048 OVC080 19/19 A3002 RMK AO2 T01890189
KRDU 132351Z 00000KT 1 1/2SM BR SCT032 BKN048 OVC080 19/19 A3002 RMK AO2 SFC VIS 5 RAE46 TSB20E38 SLP163 P0020 60029 T01890189 10200 20189 53009
KRDU 132339Z 00000KT 1 1/2SM -RA BR FEW007 BKN050 OVC075 19/19 A3001 RMK AO2 SFC VIS 3 TSB20E38 P0019 T01890189
KRDU 132321Z 00000KT 1 1/2SM TSRA BR FEW007 BKN037CB OVC047 19/19 A3000 RMK AO2 SFC VIS 3 TSB20 FRQ LTGICCG NW TS NW MOV E P0012 T01890189
KRDU 132317Z 00000KT 1 1/2SM RA BR FEW007 SCT037 OVC047 19/19 A3000 RMK AO2 SFC VIS 3 CIG 040 RWY 23R P0009 T01890189
KRDU 132307Z COR 31003KT 1 1/2SM RA BR FEW006 BKN044 OVC060 19/19 A3000 RMK AO2 SFC VIS 3 P0004 T01890189
KRDU 132303Z 31004KT 1 1/2SM RA BR SCT035 BKN045 OVC060 19/19 A3000 RMK AO2 SFC VIS 3 P0002 T01890189
KRDU 132251Z 00000KT 6SM -RA BR BKN060 OVC095 19/19 A2998 RMK AO2 SLP150 P0006 T01940189
KRDU 132151Z VRB03KT 6SM -RA BR OVC075 19/19 A3000 RMK AO2 RAB12 SLP156 P0002 T01940189
KRDU 132051Z 18004KT 10SM BKN080 OVC100 20/19 A2999 RMK AO2 SLP153 60001 T02000189 58020
KRDU 131951Z 15004KT 10SM FEW007 OVC070 20/19 A3001 RMK AO2 RAE1859 SLP159 P0000 T02000189
KRDU 131851Z 00000KT 10SM -RA FEW008 SCT055 OVC090 19/18 A3004 RMK AO2 RAE06B28 SLP168 P0001 T01890183
KRDU 131808Z 27003KT 10SM SCT008 BKN085 OVC110 19/18 A3004 RMK AO2 RAE06 P0000 T01890183
KRDU 131751Z 23006KT 3SM -RA SCT010 BKN075 OVC110 19/18 A3005 RMK AO2 SFC VIS 10 SLP173 P0005 60009 T01940183 10239 20161 58006
KRDU 131651Z 21005KT 10SM -RA SCT085 OVC110 19/18 A3007 RMK AO2 SLP179 P0003 T01940183
KRDU 131551Z 26004KT 5SM -RA BR FEW030 BKN070 OVC100 19/17 A3009 RMK AO2 RAB16 SLP185 P0001 T01940172
KRDU 131451Z 24007KT 10SM BKN080 BKN140 23/16 A3007 RMK AO2 SLP178 T02280161 53005
KRDU 131351Z VRB05KT 10SM BKN080 BKN140 22/16 A3006 RMK AO2 SLP174 T02170156
KRDU 131251Z 00000KT 10SM BKN090 19/14 A3006 RMK AO2 SLP176 T01890144
KRDU 131151Z 00000KT 10SM BKN090 16/14 A3005 RMK AO2 SLP173 T01560144 10189 20150 52010
KRDU 131051Z 00000KT 10SM FEW090 SCT120 17/14 A3004 RMK AO2 SLP169 T01670139
KRDU 130951Z 00000KT 10SM BKN090 BKN110 16/14 A3004 RMK AO2 SLP167 T01610139
KRDU 130851Z 00000KT 10SM SCT090 SCT110 17/14 A3002 RMK AO2 SLP162 T01670139 53002
KRDU 130751Z 18003KT 10SM FEW075 SCT110 17/13 A3001 RMK AO2 SLP160 T01670133
KRDU 130651Z 26003KT 10SM FEW075 FEW120 18/14 A3002 RMK AO2 SLP159 T01780139
KRDU 130551Z VRB03KT 10SM FEW075 FEW120 19/13 A3002 RMK AO2 SLP160 T01890133 10239 20172 53002
KRDU 130451Z 00000KT 10SM FEW075 18/13 A3001 RMK AO2 SLP159 T01830133 403000111
KRDU 130351Z 00000KT 10SM SCT075 20/13 A3001 RMK AO2 SLP159 T02000133
KRDU 130251Z 19005KT 10SM BKN090 21/13 A3001 RMK AO2 SLP158 T02110133 51007
KRDU 130151Z 00000KT 10SM FEW090 BKN110 21/13 A3001 RMK AO2 SLP158 T02060133
KRDU 130051Z 16006KT 10SM BKN090 BKN110 23/13 A3000 RMK AO2 SLP155 T02330133
KRDU 122351Z 15003KT 10SM BKN090 24/13 A2999 RMK AO2 SLP152 T02390133 10300 20239 53009